sensor_id;sensor_type;location;lat;lon;timestamp;temperature;humidity
13992;DHT22;7070;53.586;9.692;2022-12-07T00:01:41;4.40;89.10
13992;DHT22;7070;53.586;9.692;2022-12-07T00:04:11;4.30;89.10
13992;DHT22;7070;53.586;9.692;2022-12-07T00:06:41;4.30;89.20
13992;DHT22;7070;53.586;9.692;2022-12-07T00:09:12;4.30;89.30
13992;DHT22;7070;53.586;9.692;2022-12-07T00:11:39;4.40;89.50
13992;DHT22;7070;53.586;9.692;2022-12-07T00:14:07;4.40;89.40
13992;DHT22;7070;53.586;9.692;2022-12-07T00:16:35;4.50;89.20
13992;DHT22;7070;53.586;9.692;2022-12-07T00:19:03;4.40;88.90
13992;DHT22;7070;53.586;9.692;2022-12-07T00:21:33;4.40;88.80
13992;DHT22;7070;53.586;9.692;2022-12-07T00:24:01;4.40;89.00
13992;DHT22;7070;53.586;9.692;2022-12-07T00:26:30;4.40;89.20
13992;DHT22;7070;53.586;9.692;2022-12-07T00:28:58;4.30;89.20
13992;DHT22;7070;53.586;9.692;2022-12-07T00:31:31;4.30;89.50
13992;DHT22;7070;53.586;9.692;2022-12-07T00:34:00;4.30;89.70
13992;DHT22;7070;53.586;9.692;2022-12-07T00:36:27;4.40;89.80
13992;DHT22;7070;53.586;9.692;2022-12-07T00:38:58;4.40;89.70
13992;DHT22;7070;53.586;9.692;2022-12-07T00:41:26;4.50;89.80
13992;DHT22;7070;53.586;9.692;2022-12-07T00:43:54;4.50;89.90
13992;DHT22;7070;53.586;9.692;2022-12-07T00:46:22;4.50;89.80
13992;DHT22;7070;53.586;9.692;2022-12-07T00:48:49;4.50;89.60
13992;DHT22;7070;53.586;9.692;2022-12-07T00:51:18;4.50;89.30
13992;DHT22;7070;53.586;9.692;2022-12-07T00:53:46;4.50;89.10
13992;DHT22;7070;53.586;9.692;2022-12-07T00:56:16;4.50;89.10
13992;DHT22;7070;53.586;9.692;2022-12-07T00:58:43;4.50;89.00
13992;DHT22;7070;53.586;9.692;2022-12-07T01:01:11;4.40;88.80
13992;DHT22;7070;53.586;9.692;2022-12-07T01:03:38;4.40;88.90
13992;DHT22;7070;53.586;9.692;2022-12-07T01:06:05;4.30;88.80
13992;DHT22;7070;53.586;9.692;2022-12-07T01:08:32;4.30;88.90
13992;DHT22;7070;53.586;9.692;2022-12-07T01:11:01;4.20;88.70
13992;DHT22;7070;53.586;9.692;2022-12-07T01:13:31;4.20;88.60
13992;DHT22;7070;53.586;9.692;2022-12-07T01:15:59;4.10;88.40
13992;DHT22;7070;53.586;9.692;2022-12-07T01:18:27;4.10;88.30
13992;DHT22;7070;53.586;9.692;2022-12-07T01:20:58;4.10;88.30
13992;DHT22;7070;53.586;9.692;2022-12-07T01:23:25;3.90;88.10
13992;DHT22;7070;53.586;9.692;2022-12-07T01:25:55;3.90;88.30
13992;DHT22;7070;53.586;9.692;2022-12-07T01:28:22;3.90;88.60
13992;DHT22;7070;53.586;9.692;2022-12-07T01:30:59;3.90;88.80
13992;DHT22;7070;53.586;9.692;2022-12-07T01:33:28;3.80;88.70
13992;DHT22;7070;53.586;9.692;2022-12-07T01:36:00;3.80;88.70
13992;DHT22;7070;53.586;9.692;2022-12-07T01:38:28;3.70;88.60
13992;DHT22;7070;53.586;9.692;2022-12-07T01:40:55;3.70;88.50
13992;DHT22;7070;53.586;9.692;2022-12-07T01:43:24;3.70;88.40
13992;DHT22;7070;53.586;9.692;2022-12-07T01:45:53;3.60;88.20
13992;DHT22;7070;53.586;9.692;2022-12-07T01:48:25;3.60;88.10
13992;DHT22;7070;53.586;9.692;2022-12-07T01:50:54;3.60;88.20
13992;DHT22;7070;53.586;9.692;2022-12-07T01:53:24;3.50;88.20
13992;DHT22;7070;53.586;9.692;2022-12-07T01:55:52;3.40;88.20
13992;DHT22;7070;53.586;9.692;2022-12-07T01:58:21;3.30;88.10
13992;DHT22;7070;53.586;9.692;2022-12-07T02:00:48;3.30;88.10
13992;DHT22;7070;53.586;9.692;2022-12-07T02:03:18;3.20;88.00
13992;DHT22;7070;53.586;9.692;2022-12-07T02:05:48;3.20;88.20
13992;DHT22;7070;53.586;9.692;2022-12-07T02:08:16;3.10;88.20
13992;DHT22;7070;53.586;9.692;2022-12-07T02:10:44;3.10;88.20
13992;DHT22;7070;53.586;9.692;2022-12-07T02:13:13;3.10;88.20
13992;DHT22;7070;53.586;9.692;2022-12-07T02:16:00;3.00;88.10
13992;DHT22;7070;53.586;9.692;2022-12-07T02:18:43;3.00;87.80
13992;DHT22;7070;53.586;9.692;2022-12-07T02:21:16;2.90;88.00
13992;DHT22;7070;53.586;9.692;2022-12-07T02:24:13;2.90;88.10
13992;DHT22;7070;53.586;9.692;2022-12-07T02:27:04;2.90;88.00
13992;DHT22;7070;53.586;9.692;2022-12-07T02:29:37;2.80;87.80
13992;DHT22;7070;53.586;9.692;2022-12-07T02:32:11;2.70;88.10
13992;DHT22;7070;53.586;9.692;2022-12-07T02:34:46;2.60;88.00
13992;DHT22;7070;53.586;9.692;2022-12-07T02:37:26;2.70;88.00
13992;DHT22;7070;53.586;9.692;2022-12-07T02:39:57;2.60;87.80
13992;DHT22;7070;53.586;9.692;2022-12-07T02:42:30;2.50;87.80
13992;DHT22;7070;53.586;9.692;2022-12-07T02:45:00;2.50;87.90
13992;DHT22;7070;53.586;9.692;2022-12-07T02:47:28;2.50;87.90
13992;DHT22;7070;53.586;9.692;2022-12-07T02:49:56;2.40;88.00
13992;DHT22;7070;53.586;9.692;2022-12-07T02:52:23;2.40;87.90
13992;DHT22;7070;53.586;9.692;2022-12-07T02:54:50;2.30;87.90
13992;DHT22;7070;53.586;9.692;2022-12-07T02:57:34;2.30;87.90
13992;DHT22;7070;53.586;9.692;2022-12-07T03:00:09;1.80;87.40
13992;DHT22;7070;53.586;9.692;2022-12-07T03:02:48;2.20;88.60
13992;DHT22;7070;53.586;9.692;2022-12-07T03:05:39;2.30;88.00
13992;DHT22;7070;53.586;9.692;2022-12-07T03:08:13;2.20;88.00
13992;DHT22;7070;53.586;9.692;2022-12-07T03:10:49;2.20;88.10
13992;DHT22;7070;53.586;9.692;2022-12-07T03:13:23;2.20;88.10
13992;DHT22;7070;53.586;9.692;2022-12-07T03:15:57;2.10;88.10
13992;DHT22;7070;53.586;9.692;2022-12-07T03:18:28;2.10;88.20
13992;DHT22;7070;53.586;9.692;2022-12-07T03:21:05;2.10;88.30
13992;DHT22;7070;53.586;9.692;2022-12-07T03:23:35;2.20;88.30
13992;DHT22;7070;53.586;9.692;2022-12-07T03:26:04;2.10;88.10
13992;DHT22;7070;53.586;9.692;2022-12-07T03:28:34;2.10;88.00
13992;DHT22;7070;53.586;9.692;2022-12-07T03:31:10;2.00;87.90
13992;DHT22;7070;53.586;9.692;2022-12-07T03:33:44;2.00;87.80
13992;DHT22;7070;53.586;9.692;2022-12-07T03:36:17;2.00;87.90
13992;DHT22;7070;53.586;9.692;2022-12-07T03:38:51;2.00;87.90
13992;DHT22;7070;53.586;9.692;2022-12-07T03:41:24;1.90;87.90
13992;DHT22;7070;53.586;9.692;2022-12-07T03:43:52;1.90;87.90
13992;DHT22;7070;53.586;9.692;2022-12-07T03:46:29;1.90;88.10
13992;DHT22;7070;53.586;9.692;2022-12-07T03:49:03;1.90;88.10
13992;DHT22;7070;53.586;9.692;2022-12-07T03:51:36;1.90;88.10
13992;DHT22;7070;53.586;9.692;2022-12-07T03:54:10;1.80;87.90
13992;DHT22;7070;53.586;9.692;2022-12-07T03:56:40;1.80;88.00
13992;DHT22;7070;53.586;9.692;2022-12-07T03:59:07;1.90;88.90
13992;DHT22;7070;53.586;9.692;2022-12-07T04:01:36;1.80;88.20
13992;DHT22;7070;53.586;9.692;2022-12-07T04:04:03;1.80;88.20
13992;DHT22;7070;53.586;9.692;2022-12-07T04:06:29;1.80;88.30
13992;DHT22;7070;53.586;9.692;2022-12-07T04:08:56;1.80;88.30
13992;DHT22;7070;53.586;9.692;2022-12-07T04:11:23;1.80;88.40
13992;DHT22;7070;53.586;9.692;2022-12-07T04:13:50;1.90;88.40
13992;DHT22;7070;53.586;9.692;2022-12-07T04:16:36;1.90;88.50
13992;DHT22;7070;53.586;9.692;2022-12-07T04:19:02;1.90;88.60
13992;DHT22;7070;53.586;9.692;2022-12-07T04:21:29;1.90;88.70
13992;DHT22;7070;53.586;9.692;2022-12-07T04:23:56;1.90;88.90
13992;DHT22;7070;53.586;9.692;2022-12-07T04:26:23;1.90;88.80
13992;DHT22;7070;53.586;9.692;2022-12-07T04:28:50;2.00;88.80
13992;DHT22;7070;53.586;9.692;2022-12-07T04:31:17;2.10;88.90
13992;DHT22;7070;53.586;9.692;2022-12-07T04:33:45;2.10;88.90
13992;DHT22;7070;53.586;9.692;2022-12-07T04:36:12;2.10;88.80
13992;DHT22;7070;53.586;9.692;2022-12-07T04:38:38;2.20;88.80
13992;DHT22;7070;53.586;9.692;2022-12-07T04:41:06;2.20;88.70
13992;DHT22;7070;53.586;9.692;2022-12-07T04:43:33;2.20;88.70
13992;DHT22;7070;53.586;9.692;2022-12-07T04:46:00;2.20;88.60
13992;DHT22;7070;53.586;9.692;2022-12-07T04:48:28;2.20;88.50
13992;DHT22;7070;53.586;9.692;2022-12-07T04:50:56;2.20;88.40
13992;DHT22;7070;53.586;9.692;2022-12-07T04:53:23;2.10;88.30
13992;DHT22;7070;53.586;9.692;2022-12-07T04:55:50;2.10;88.40
13992;DHT22;7070;53.586;9.692;2022-12-07T04:58:17;2.10;88.20
13992;DHT22;7070;53.586;9.692;2022-12-07T05:00:44;2.10;88.10
13992;DHT22;7070;53.586;9.692;2022-12-07T05:03:11;2.10;88.00
13992;DHT22;7070;53.586;9.692;2022-12-07T05:05:40;2.00;87.90
13992;DHT22;7070;53.586;9.692;2022-12-07T05:08:08;2.00;87.90
13992;DHT22;7070;53.586;9.692;2022-12-07T05:10:35;2.00;87.90
13992;DHT22;7070;53.586;9.692;2022-12-07T05:13:02;2.00;88.70
13992;DHT22;7070;53.586;9.692;2022-12-07T05:15:29;1.90;87.90
13992;DHT22;7070;53.586;9.692;2022-12-07T05:17:56;1.80;87.80
13992;DHT22;7070;53.586;9.692;2022-12-07T05:20:23;1.90;87.90
13992;DHT22;7070;53.586;9.692;2022-12-07T05:22:50;1.90;87.90
13992;DHT22;7070;53.586;9.692;2022-12-07T05:25:18;1.90;87.90
13992;DHT22;7070;53.586;9.692;2022-12-07T05:27:45;1.90;87.90
13992;DHT22;7070;53.586;9.692;2022-12-07T05:30:13;1.80;87.90
13992;DHT22;7070;53.586;9.692;2022-12-07T05:32:40;1.80;87.90
13992;DHT22;7070;53.586;9.692;2022-12-07T05:35:07;1.80;88.10
13992;DHT22;7070;53.586;9.692;2022-12-07T05:37:34;1.80;88.10
13992;DHT22;7070;53.586;9.692;2022-12-07T05:40:01;1.70;88.10
13992;DHT22;7070;53.586;9.692;2022-12-07T05:42:29;1.80;88.40
13992;DHT22;7070;53.586;9.692;2022-12-07T05:44:56;1.90;88.60
13992;DHT22;7070;53.586;9.692;2022-12-07T05:47:23;1.90;88.60
13992;DHT22;7070;53.586;9.692;2022-12-07T05:49:50;1.90;88.50
13992;DHT22;7070;53.586;9.692;2022-12-07T05:52:17;1.90;88.40
13992;DHT22;7070;53.586;9.692;2022-12-07T05:54:44;1.90;88.20
13992;DHT22;7070;53.586;9.692;2022-12-07T05:57:11;1.90;88.30
13992;DHT22;7070;53.586;9.692;2022-12-07T05:59:39;1.80;88.00
13992;DHT22;7070;53.586;9.692;2022-12-07T06:02:06;1.80;88.20
13992;DHT22;7070;53.586;9.692;2022-12-07T06:04:36;1.90;88.30
13992;DHT22;7070;53.586;9.692;2022-12-07T06:07:04;1.90;88.40
13992;DHT22;7070;53.586;9.692;2022-12-07T06:09:31;1.90;88.40
13992;DHT22;7070;53.586;9.692;2022-12-07T06:11:59;1.90;88.50
13992;DHT22;7070;53.586;9.692;2022-12-07T06:14:45;1.90;88.70
13992;DHT22;7070;53.586;9.692;2022-12-07T06:17:12;1.90;88.90
13992;DHT22;7070;53.586;9.692;2022-12-07T06:19:39;2.00;89.00
13992;DHT22;7070;53.586;9.692;2022-12-07T06:22:07;2.00;88.80
13992;DHT22;7070;53.586;9.692;2022-12-07T06:24:35;2.00;88.80
13992;DHT22;7070;53.586;9.692;2022-12-07T06:27:02;2.00;88.60
13992;DHT22;7070;53.586;9.692;2022-12-07T06:29:29;2.10;88.70
13992;DHT22;7070;53.586;9.692;2022-12-07T06:31:58;2.00;88.60
13992;DHT22;7070;53.586;9.692;2022-12-07T06:34:26;2.10;88.70
13992;DHT22;7070;53.586;9.692;2022-12-07T06:36:54;2.10;88.80
13992;DHT22;7070;53.586;9.692;2022-12-07T06:39:24;2.00;88.60
13992;DHT22;7070;53.586;9.692;2022-12-07T06:41:52;2.10;88.80
13992;DHT22;7070;53.586;9.692;2022-12-07T06:44:19;2.10;88.80
13992;DHT22;7070;53.586;9.692;2022-12-07T06:46:47;2.10;88.90
13992;DHT22;7070;53.586;9.692;2022-12-07T06:49:15;2.10;88.80
13992;DHT22;7070;53.586;9.692;2022-12-07T06:51:42;2.20;88.90
13992;DHT22;7070;53.586;9.692;2022-12-07T06:54:10;2.20;88.90
13992;DHT22;7070;53.586;9.692;2022-12-07T06:56:37;2.20;88.90
13992;DHT22;7070;53.586;9.692;2022-12-07T06:59:05;2.20;88.90
13992;DHT22;7070;53.586;9.692;2022-12-07T07:01:33;2.20;88.90
13992;DHT22;7070;53.586;9.692;2022-12-07T07:04:00;2.20;88.90
13992;DHT22;7070;53.586;9.692;2022-12-07T07:06:28;2.30;89.80
13992;DHT22;7070;53.586;9.692;2022-12-07T07:08:55;2.30;89.10
13992;DHT22;7070;53.586;9.692;2022-12-07T07:11:22;2.40;89.20
13992;DHT22;7070;53.586;9.692;2022-12-07T07:13:49;2.30;89.10
13992;DHT22;7070;53.586;9.692;2022-12-07T07:16:16;2.40;89.20
13992;DHT22;7070;53.586;9.692;2022-12-07T07:18:43;2.40;89.30
13992;DHT22;7070;53.586;9.692;2022-12-07T07:21:10;2.50;89.40
13992;DHT22;7070;53.586;9.692;2022-12-07T07:23:38;2.50;89.20
13992;DHT22;7070;53.586;9.692;2022-12-07T07:26:05;2.50;89.00
13992;DHT22;7070;53.586;9.692;2022-12-07T07:28:32;2.50;89.10
13992;DHT22;7070;53.586;9.692;2022-12-07T07:30:59;2.50;89.00
13992;DHT22;7070;53.586;9.692;2022-12-07T07:33:26;2.50;88.90
13992;DHT22;7070;53.586;9.692;2022-12-07T07:35:53;2.50;89.00
13992;DHT22;7070;53.586;9.692;2022-12-07T07:38:19;2.50;88.90
13992;DHT22;7070;53.586;9.692;2022-12-07T07:40:48;2.50;88.90
13992;DHT22;7070;53.586;9.692;2022-12-07T07:43:15;2.50;89.00
13992;DHT22;7070;53.586;9.692;2022-12-07T07:45:41;2.50;88.80
13992;DHT22;7070;53.586;9.692;2022-12-07T07:48:08;2.50;88.80
13992;DHT22;7070;53.586;9.692;2022-12-07T07:50:35;2.60;88.90
13992;DHT22;7070;53.586;9.692;2022-12-07T07:53:02;2.60;88.90
13992;DHT22;7070;53.586;9.692;2022-12-07T07:55:29;2.50;88.80
13992;DHT22;7070;53.586;9.692;2022-12-07T07:57:57;2.50;88.90
13992;DHT22;7070;53.586;9.692;2022-12-07T08:00:24;2.60;89.00
13992;DHT22;7070;53.586;9.692;2022-12-07T08:02:51;2.60;89.00
13992;DHT22;7070;53.586;9.692;2022-12-07T08:05:18;2.70;89.20
13992;DHT22;7070;53.586;9.692;2022-12-07T08:07:45;2.70;89.30
13992;DHT22;7070;53.586;9.692;2022-12-07T08:10:13;2.70;89.40
13992;DHT22;7070;53.586;9.692;2022-12-07T08:12:42;2.70;89.50
13992;DHT22;7070;53.586;9.692;2022-12-07T08:15:25;2.80;89.50
13992;DHT22;7070;53.586;9.692;2022-12-07T08:17:52;2.90;89.60
13992;DHT22;7070;53.586;9.692;2022-12-07T08:20:19;2.90;89.50
13992;DHT22;7070;53.586;9.692;2022-12-07T08:22:46;2.90;89.60
13992;DHT22;7070;53.586;9.692;2022-12-07T08:25:13;3.00;89.60
13992;DHT22;7070;53.586;9.692;2022-12-07T08:27:40;3.00;89.70
13992;DHT22;7070;53.586;9.692;2022-12-07T08:30:08;3.00;89.70
13992;DHT22;7070;53.586;9.692;2022-12-07T08:32:36;3.10;89.70
13992;DHT22;7070;53.586;9.692;2022-12-07T08:35:04;3.20;89.70
13992;DHT22;7070;53.586;9.692;2022-12-07T08:37:31;3.20;89.80
13992;DHT22;7070;53.586;9.692;2022-12-07T08:39:58;3.20;89.80
13992;DHT22;7070;53.586;9.692;2022-12-07T08:42:25;3.30;89.90
13992;DHT22;7070;53.586;9.692;2022-12-07T08:44:55;3.40;90.00
13992;DHT22;7070;53.586;9.692;2022-12-07T08:47:23;3.50;90.00
13992;DHT22;7070;53.586;9.692;2022-12-07T08:49:54;3.50;90.00
13992;DHT22;7070;53.586;9.692;2022-12-07T08:52:21;3.60;90.00
13992;DHT22;7070;53.586;9.692;2022-12-07T08:54:49;3.60;90.10
13992;DHT22;7070;53.586;9.692;2022-12-07T08:57:16;3.70;90.00
13992;DHT22;7070;53.586;9.692;2022-12-07T08:59:43;3.80;90.00
13992;DHT22;7070;53.586;9.692;2022-12-07T09:02:10;3.80;90.00
13992;DHT22;7070;53.586;9.692;2022-12-07T09:04:37;3.80;90.00
13992;DHT22;7070;53.586;9.692;2022-12-07T09:07:05;3.90;90.00
13992;DHT22;7070;53.586;9.692;2022-12-07T09:09:32;4.00;90.00
13992;DHT22;7070;53.586;9.692;2022-12-07T09:11:59;4.10;90.00
13992;DHT22;7070;53.586;9.692;2022-12-07T09:14:26;4.10;90.00
13992;DHT22;7070;53.586;9.692;2022-12-07T09:16:53;4.10;90.00
13992;DHT22;7070;53.586;9.692;2022-12-07T09:19:20;4.20;90.00
13992;DHT22;7070;53.586;9.692;2022-12-07T09:21:48;4.30;90.00
13992;DHT22;7070;53.586;9.692;2022-12-07T09:24:17;4.30;90.00
13992;DHT22;7070;53.586;9.692;2022-12-07T09:26:44;4.40;90.00
13992;DHT22;7070;53.586;9.692;2022-12-07T09:29:12;4.40;90.00
13992;DHT22;7070;53.586;9.692;2022-12-07T09:31:39;4.50;90.10
13992;DHT22;7070;53.586;9.692;2022-12-07T09:34:06;4.50;90.10
13992;DHT22;7070;53.586;9.692;2022-12-07T09:36:34;4.60;90.00
13992;DHT22;7070;53.586;9.692;2022-12-07T09:39:01;4.60;90.00
13992;DHT22;7070;53.586;9.692;2022-12-07T09:41:32;4.70;90.00
13992;DHT22;7070;53.586;9.692;2022-12-07T09:44:04;4.70;90.00
13992;DHT22;7070;53.586;9.692;2022-12-07T09:46:35;4.70;90.00
13992;DHT22;7070;53.586;9.692;2022-12-07T09:49:03;4.90;90.00
13992;DHT22;7070;53.586;9.692;2022-12-07T09:51:31;4.90;90.00
13992;DHT22;7070;53.586;9.692;2022-12-07T09:53:59;4.90;90.00
13992;DHT22;7070;53.586;9.692;2022-12-07T09:56:30;5.00;90.10
13992;DHT22;7070;53.586;9.692;2022-12-07T09:59:00;5.00;90.00
13992;DHT22;7070;53.586;9.692;2022-12-07T10:01:29;5.20;90.10
13992;DHT22;7070;53.586;9.692;2022-12-07T10:04:01;5.20;90.00
13992;DHT22;7070;53.586;9.692;2022-12-07T10:06:32;5.20;90.00
13992;DHT22;7070;53.586;9.692;2022-12-07T10:08:59;5.30;90.00
13992;DHT22;7070;53.586;9.692;2022-12-07T10:11:26;5.40;90.00
13992;DHT22;7070;53.586;9.692;2022-12-07T10:13:54;5.40;90.00
13992;DHT22;7070;53.586;9.692;2022-12-07T10:16:36;5.40;90.00
13992;DHT22;7070;53.586;9.692;2022-12-07T10:19:20;5.40;90.00
13992;DHT22;7070;53.586;9.692;2022-12-07T10:22:13;5.50;90.00
13992;DHT22;7070;53.586;9.692;2022-12-07T10:24:42;5.50;90.00
13992;DHT22;7070;53.586;9.692;2022-12-07T10:27:18;5.40;90.00
13992;DHT22;7070;53.586;9.692;2022-12-07T10:29:52;5.50;90.00
13992;DHT22;7070;53.586;9.692;2022-12-07T10:32:30;5.50;90.20
13992;DHT22;7070;53.586;9.692;2022-12-07T10:35:19;5.50;89.70
13992;DHT22;7070;53.586;9.692;2022-12-07T10:37:47;5.50;89.60
13992;DHT22;7070;53.586;9.692;2022-12-07T10:40:26;5.60;89.60
13992;DHT22;7070;53.586;9.692;2022-12-07T10:43:15;5.50;89.50
13992;DHT22;7070;53.586;9.692;2022-12-07T10:46:14;5.60;89.50
13992;DHT22;7070;53.586;9.692;2022-12-07T10:48:53;5.70;89.60
13992;DHT22;7070;53.586;9.692;2022-12-07T10:51:29;5.60;89.50
13992;DHT22;7070;53.586;9.692;2022-12-07T10:54:09;5.60;89.40
13992;DHT22;7070;53.586;9.692;2022-12-07T10:56:58;5.60;89.50
13992;DHT22;7070;53.586;9.692;2022-12-07T11:02:36;5.60;89.40
13992;DHT22;7070;53.586;9.692;2022-12-07T11:05:17;5.60;89.40
13992;DHT22;7070;53.586;9.692;2022-12-07T11:07:54;5.60;89.40
13992;DHT22;7070;53.586;9.692;2022-12-07T11:10:26;5.60;89.60
13992;DHT22;7070;53.586;9.692;2022-12-07T11:13:15;5.70;89.50
13992;DHT22;7070;53.586;9.692;2022-12-07T11:18:46;5.70;89.50
13992;DHT22;7070;53.586;9.692;2022-12-07T11:21:23;5.80;89.70
13992;DHT22;7070;53.586;9.692;2022-12-07T11:24:01;5.70;89.60
13992;DHT22;7070;53.586;9.692;2022-12-07T11:26:44;5.80;89.60
13992;DHT22;7070;53.586;9.692;2022-12-07T11:29:28;5.80;89.50
13992;DHT22;7070;53.586;9.692;2022-12-07T11:32:07;5.80;89.40
13992;DHT22;7070;53.586;9.692;2022-12-07T11:34:44;5.80;89.50
13992;DHT22;7070;53.586;9.692;2022-12-07T11:37:19;5.80;89.50
13992;DHT22;7070;53.586;9.692;2022-12-07T11:39:51;5.80;89.50
13992;DHT22;7070;53.586;9.692;2022-12-07T11:42:22;5.90;89.60
13992;DHT22;7070;53.586;9.692;2022-12-07T11:44:55;5.90;89.70
13992;DHT22;7070;53.586;9.692;2022-12-07T11:47:30;5.90;89.70
13992;DHT22;7070;53.586;9.692;2022-12-07T11:50:10;5.90;89.50
13992;DHT22;7070;53.586;9.692;2022-12-07T11:52:45;5.80;89.30
13992;DHT22;7070;53.586;9.692;2022-12-07T11:55:21;5.80;89.30
13992;DHT22;7070;53.586;9.692;2022-12-07T11:57:53;5.90;89.40
13992;DHT22;7070;53.586;9.692;2022-12-07T12:00:23;5.80;89.40
13992;DHT22;7070;53.586;9.692;2022-12-07T12:02:53;5.80;89.40
13992;DHT22;7070;53.586;9.692;2022-12-07T12:05:25;5.80;89.30
13992;DHT22;7070;53.586;9.692;2022-12-07T12:07:57;5.80;89.30
13992;DHT22;7070;53.586;9.692;2022-12-07T12:10:34;5.80;89.30
13992;DHT22;7070;53.586;9.692;2022-12-07T12:16:15;5.80;89.10
13992;DHT22;7070;53.586;9.692;2022-12-07T12:19:02;5.70;89.10
13992;DHT22;7070;53.586;9.692;2022-12-07T12:21:33;5.80;89.10
13992;DHT22;7070;53.586;9.692;2022-12-07T12:24:04;5.70;89.10
13992;DHT22;7070;53.586;9.692;2022-12-07T12:26:36;5.70;89.10
13992;DHT22;7070;53.586;9.692;2022-12-07T12:29:05;5.70;89.30
13992;DHT22;7070;53.586;9.692;2022-12-07T12:31:37;5.80;89.50
13992;DHT22;7070;53.586;9.692;2022-12-07T12:34:38;5.80;89.70
13992;DHT22;7070;53.586;9.692;2022-12-07T12:37:39;5.80;89.90
13992;DHT22;7070;53.586;9.692;2022-12-07T12:40:39;5.90;90.00
13992;DHT22;7070;53.586;9.692;2022-12-07T12:43:39;6.00;90.10
13992;DHT22;7070;53.586;9.692;2022-12-07T12:46:38;6.10;89.90
13992;DHT22;7070;53.586;9.692;2022-12-07T12:50:11;6.10;89.70
13992;DHT22;7070;53.586;9.692;2022-12-07T12:53:02;6.10;89.40
13992;DHT22;7070;53.586;9.692;2022-12-07T12:58:38;6.10;89.40
13992;DHT22;7070;53.586;9.692;2022-12-07T13:04:36;6.10;89.10
13992;DHT22;7070;53.586;9.692;2022-12-07T13:07:08;6.00;88.90
13992;DHT22;7070;53.586;9.692;2022-12-07T13:09:43;6.00;89.00
13992;DHT22;7070;53.586;9.692;2022-12-07T13:12:15;5.90;88.90
13992;DHT22;7070;53.586;9.692;2022-12-07T13:14:53;6.00;89.10
13992;DHT22;7070;53.586;9.692;2022-12-07T13:17:55;5.80;89.00
13992;DHT22;7070;53.586;9.692;2022-12-07T13:20:48;5.80;88.90
13992;DHT22;7070;53.586;9.692;2022-12-07T13:23:19;5.80;89.00
13992;DHT22;7070;53.586;9.692;2022-12-07T13:25:54;5.80;89.20
13992;DHT22;7070;53.586;9.692;2022-12-07T13:28:23;5.70;89.30
13992;DHT22;7070;53.586;9.692;2022-12-07T13:31:10;5.70;89.50
13992;DHT22;7070;53.586;9.692;2022-12-07T13:33:38;5.70;89.60
13992;DHT22;7070;53.586;9.692;2022-12-07T13:36:12;5.70;89.50
13992;DHT22;7070;53.586;9.692;2022-12-07T13:38:50;5.80;89.60
13992;DHT22;7070;53.586;9.692;2022-12-07T13:41:20;5.70;89.40
13992;DHT22;7070;53.586;9.692;2022-12-07T13:43:50;5.70;89.40
13992;DHT22;7070;53.586;9.692;2022-12-07T13:46:24;5.70;89.30
13992;DHT22;7070;53.586;9.692;2022-12-07T13:48:52;5.70;89.50
13992;DHT22;7070;53.586;9.692;2022-12-07T13:51:22;5.70;89.60
13992;DHT22;7070;53.586;9.692;2022-12-07T13:53:52;5.70;89.70
13992;DHT22;7070;53.586;9.692;2022-12-07T13:56:25;5.70;89.90
13992;DHT22;7070;53.586;9.692;2022-12-07T13:58:53;5.70;89.70
13992;DHT22;7070;53.586;9.692;2022-12-07T14:01:21;5.70;89.70
13992;DHT22;7070;53.586;9.692;2022-12-07T14:03:47;5.70;89.70
13992;DHT22;7070;53.586;9.692;2022-12-07T14:06:19;5.60;89.60
13992;DHT22;7070;53.586;9.692;2022-12-07T14:08:46;5.70;89.60
13992;DHT22;7070;53.586;9.692;2022-12-07T14:11:17;5.70;89.70
13992;DHT22;7070;53.586;9.692;2022-12-07T14:13:55;5.60;89.30
13992;DHT22;7070;53.586;9.692;2022-12-07T14:16:27;5.60;89.10
13992;DHT22;7070;53.586;9.692;2022-12-07T14:18:55;5.60;88.90
13992;DHT22;7070;53.586;9.692;2022-12-07T14:21:24;5.50;88.70
13992;DHT22;7070;53.586;9.692;2022-12-07T14:24:08;5.40;88.70
13992;DHT22;7070;53.586;9.692;2022-12-07T14:26:36;5.40;88.50
13992;DHT22;7070;53.586;9.692;2022-12-07T14:29:22;5.30;88.40
13992;DHT22;7070;53.586;9.692;2022-12-07T14:31:49;5.20;88.20
13992;DHT22;7070;53.586;9.692;2022-12-07T14:34:16;5.20;89.00
13992;DHT22;7070;53.586;9.692;2022-12-07T14:36:43;5.00;88.00
13992;DHT22;7070;53.586;9.692;2022-12-07T14:39:10;5.00;88.00
13992;DHT22;7070;53.586;9.692;2022-12-07T14:41:36;4.80;87.90
13992;DHT22;7070;53.586;9.692;2022-12-07T14:44:21;4.80;87.90
13992;DHT22;7070;53.586;9.692;2022-12-07T14:46:50;4.70;87.90
13992;DHT22;7070;53.586;9.692;2022-12-07T14:49:17;4.60;87.80
13992;DHT22;7070;53.586;9.692;2022-12-07T14:51:46;4.50;87.80
13992;DHT22;7070;53.586;9.692;2022-12-07T14:54:16;4.50;87.90
13992;DHT22;7070;53.586;9.692;2022-12-07T14:56:44;4.50;88.00
13992;DHT22;7070;53.586;9.692;2022-12-07T14:59:14;4.30;87.80
13992;DHT22;7070;53.586;9.692;2022-12-07T15:01:43;4.30;88.70
13992;DHT22;7070;53.586;9.692;2022-12-07T15:04:10;4.20;88.00
13992;DHT22;7070;53.586;9.692;2022-12-07T15:06:37;4.20;88.10
13992;DHT22;7070;53.586;9.692;2022-12-07T15:09:04;4.10;88.10
13992;DHT22;7070;53.586;9.692;2022-12-07T15:11:31;4.10;88.30
13992;DHT22;7070;53.586;9.692;2022-12-07T15:13:58;4.00;88.30
13992;DHT22;7070;53.586;9.692;2022-12-07T15:16:34;4.00;88.40
13992;DHT22;7070;53.586;9.692;2022-12-07T15:19:03;4.00;88.40
13992;DHT22;7070;53.586;9.692;2022-12-07T15:21:30;4.00;89.10
13992;DHT22;7070;53.586;9.692;2022-12-07T15:23:56;4.00;88.30
13992;DHT22;7070;53.586;9.692;2022-12-07T15:26:23;3.90;88.30
13992;DHT22;7070;53.586;9.692;2022-12-07T15:28:52;3.90;88.40
13992;DHT22;7070;53.586;9.692;2022-12-07T15:31:19;3.80;88.40
13992;DHT22;7070;53.586;9.692;2022-12-07T15:33:46;3.80;89.10
13992;DHT22;7070;53.586;9.692;2022-12-07T15:36:18;3.80;88.50
13992;DHT22;7070;53.586;9.692;2022-12-07T15:38:46;3.80;88.50
13992;DHT22;7070;53.586;9.692;2022-12-07T15:41:13;3.70;88.40
13992;DHT22;7070;53.586;9.692;2022-12-07T15:43:39;3.70;88.20
13992;DHT22;7070;53.586;9.692;2022-12-07T15:46:28;3.60;88.00
13992;DHT22;7070;53.586;9.692;2022-12-07T15:48:55;3.60;87.90
13992;DHT22;7070;53.586;9.692;2022-12-07T15:51:23;3.60;88.00
13992;DHT22;7070;53.586;9.692;2022-12-07T15:53:50;3.50;88.00
13992;DHT22;7070;53.586;9.692;2022-12-07T15:56:17;3.50;88.20
13992;DHT22;7070;53.586;9.692;2022-12-07T15:58:44;3.40;88.10
13992;DHT22;7070;53.586;9.692;2022-12-07T16:01:12;3.50;88.20
13992;DHT22;7070;53.586;9.692;2022-12-07T16:03:38;3.40;88.10
13992;DHT22;7070;53.586;9.692;2022-12-07T16:06:06;3.30;87.90
13992;DHT22;7070;53.586;9.692;2022-12-07T16:08:34;3.30;88.00
13992;DHT22;7070;53.586;9.692;2022-12-07T16:11:05;3.30;88.00
13992;DHT22;7070;53.586;9.692;2022-12-07T16:13:32;3.20;87.80
13992;DHT22;7070;53.586;9.692;2022-12-07T16:16:02;3.20;87.70
13992;DHT22;7070;53.586;9.692;2022-12-07T16:18:29;3.10;87.60
13992;DHT22;7070;53.586;9.692;2022-12-07T16:20:56;3.10;87.70
13992;DHT22;7070;53.586;9.692;2022-12-07T16:23:25;3.00;87.60
13992;DHT22;7070;53.586;9.692;2022-12-07T16:25:53;3.00;87.60
13992;DHT22;7070;53.586;9.692;2022-12-07T16:28:20;2.90;87.50
13992;DHT22;7070;53.586;9.692;2022-12-07T16:30:47;2.90;87.50
13992;DHT22;7070;53.586;9.692;2022-12-07T16:33:14;2.80;87.50
13992;DHT22;7070;53.586;9.692;2022-12-07T16:35:41;2.80;87.60
13992;DHT22;7070;53.586;9.692;2022-12-07T16:38:09;2.80;87.70
13992;DHT22;7070;53.586;9.692;2022-12-07T16:40:36;2.70;87.70
13992;DHT22;7070;53.586;9.692;2022-12-07T16:43:04;2.70;87.70